createdAt,value
2022-10-24T00:02:07.377Z,43.42
2022-10-24T00:07:14.570Z,43.43
2022-10-24T00:17:29.013Z,43.66
2022-10-24T00:22:36.169Z,43.68
2022-10-24T00:27:43.430Z,43.64
2022-10-24T00:32:50.641Z,43.63
2022-10-24T00:37:57.809Z,44.10
2022-10-24T00:43:05.094Z,44.08
2022-10-24T00:48:12.300Z,44.57
2022-10-24T00:53:19.565Z,44.13
2022-10-24T00:58:26.772Z,44.66
2022-10-24T01:03:33.926Z,44.50
2022-10-24T01:08:41.115Z,45.84
2022-10-24T01:13:48.336Z,45.10
2022-10-24T01:18:55.530Z,47.22
2022-10-24T01:24:02.729Z,45.91
2022-10-24T01:29:09.955Z,45.62
2022-10-24T01:34:17.144Z,45.12
2022-10-24T01:39:24.322Z,45.04
2022-10-24T01:44:31.570Z,44.97
2022-10-24T01:49:38.759Z,44.84
2022-10-24T01:54:45.998Z,44.83
2022-10-24T01:59:53.191Z,45.06
2022-10-24T02:05:00.324Z,46.53
2022-10-24T02:10:07.577Z,45.27
2022-10-24T02:15:14.914Z,45.84
2022-10-24T02:20:22.099Z,45.15
2022-10-24T02:25:29.268Z,45.11
2022-10-24T02:30:36.528Z,45.08
2022-10-24T02:35:43.686Z,45.09
2022-10-24T02:40:50.945Z,45.13
2022-10-24T02:45:58.131Z,45.10
2022-10-24T02:51:05.275Z,45.02
2022-10-24T02:56:12.520Z,45.05
2022-10-24T03:01:19.958Z,45.05
2022-10-24T03:06:26.940Z,45.04
2022-10-24T03:11:34.133Z,44.86
2022-10-24T03:16:41.366Z,44.85
2022-10-24T03:21:48.537Z,44.97
2022-10-24T03:26:57.911Z,44.98
2022-10-24T03:32:03.581Z,44.93
2022-10-24T03:37:10.732Z,44.95
2022-10-24T03:42:17.998Z,44.94
2022-10-24T03:47:25.276Z,44.94
2022-10-24T03:52:32.508Z,44.94
2022-10-24T03:57:39.728Z,44.92
2022-10-24T04:02:46.960Z,45.02
2022-10-24T04:07:54.199Z,44.87
2022-10-24T04:13:01.436Z,44.84
2022-10-24T04:18:08.693Z,45.04
2022-10-24T04:23:15.881Z,44.73
2022-10-24T04:28:23.014Z,44.84
2022-10-24T04:33:30.203Z,44.78
2022-10-24T04:38:37.337Z,44.71
2022-10-24T04:43:44.523Z,44.84
2022-10-24T04:48:51.693Z,44.87
2022-10-24T04:53:58.836Z,44.87
2022-10-24T04:59:05.989Z,45.27
2022-10-24T05:04:13.271Z,45.36
2022-10-24T05:09:20.470Z,45.69
2022-10-24T05:14:27.664Z,46.00
2022-10-24T05:19:34.886Z,45.03
2022-10-24T05:24:42.206Z,45.28
2022-10-24T05:29:49.419Z,45.96
2022-10-24T05:34:56.631Z,46.46
2022-10-24T05:40:03.803Z,45.54
2022-10-24T05:45:11.045Z,45.55
2022-10-24T05:50:18.633Z,45.66
2022-10-24T05:55:25.847Z,45.72
2022-10-24T06:00:33.061Z,45.67
2022-10-24T06:05:40.337Z,45.90
2022-10-24T06:10:47.521Z,46.03
2022-10-24T06:15:54.739Z,46.21
2022-10-24T06:21:01.977Z,45.86
2022-10-24T06:26:09.121Z,46.04
2022-10-24T06:31:16.347Z,46.16
2022-10-24T06:36:26.789Z,45.80
2022-10-24T06:41:30.697Z,45.91
2022-10-24T06:46:37.905Z,46.17
2022-10-24T06:51:45.140Z,46.46
2022-10-24T06:56:52.361Z,46.73
2022-10-24T07:02:03.256Z,47.06
2022-10-24T07:07:06.831Z,47.11
2022-10-24T07:12:14.075Z,46.96
2022-10-24T07:17:21.116Z,47.29
2022-10-24T07:22:30.286Z,47.19
2022-10-24T07:27:35.564Z,47.06
2022-10-24T07:32:42.945Z,47.28
2022-10-24T07:37:50.000Z,46.47
2022-10-24T07:42:57.236Z,47.00
2022-10-24T07:48:04.383Z,47.11
2022-10-24T07:53:11.577Z,47.07
2022-10-24T07:58:18.764Z,47.10
2022-10-24T08:03:25.974Z,47.24
2022-10-24T08:08:37.092Z,47.13
2022-10-24T08:13:40.398Z,47.13
2022-10-24T08:18:47.543Z,47.20
2022-10-24T08:23:54.866Z,47.08
2022-10-24T08:29:02.075Z,47.24
2022-10-24T08:34:09.237Z,47.26
2022-10-24T08:39:16.489Z,47.48
2022-10-24T08:44:23.690Z,46.85
2022-10-24T08:49:30.877Z,46.77
2022-10-24T08:54:38.126Z,46.79
2022-10-24T08:59:45.342Z,47.64
2022-10-24T09:04:52.503Z,46.75
2022-10-24T09:09:59.724Z,47.34
2022-10-24T09:15:06.961Z,48.16
2022-10-24T09:20:14.224Z,48.32
2022-10-24T09:25:21.456Z,48.61
2022-10-24T09:30:31.512Z,48.08
2022-10-24T09:35:35.869Z,47.75
2022-10-24T09:40:43.160Z,47.45
2022-10-24T09:45:50.341Z,47.66
2022-10-24T09:50:57.609Z,47.25
2022-10-24T09:56:04.795Z,47.60
2022-10-24T10:01:12.057Z,47.71
2022-10-24T10:06:19.142Z,48.03
2022-10-24T10:11:26.382Z,48.29
2022-10-24T10:16:33.551Z,48.38
2022-10-24T10:21:40.866Z,48.61
2022-10-24T10:26:48.098Z,48.38
2022-10-24T10:31:55.312Z,48.51
2022-10-24T10:37:02.492Z,48.59
2022-10-24T10:42:09.862Z,48.35
2022-10-24T10:47:17.098Z,48.40
2022-10-24T10:52:24.282Z,48.30
2022-10-24T10:57:31.571Z,48.30
2022-10-24T11:02:38.877Z,48.27
2022-10-24T11:07:46.336Z,48.14
2022-10-24T11:12:53.263Z,48.14
2022-10-24T11:18:00.436Z,48.20
2022-10-24T11:23:07.782Z,48.08
2022-10-24T11:28:14.877Z,48.05
2022-10-24T11:33:22.038Z,47.73
2022-10-24T11:38:29.257Z,47.77
2022-10-24T11:43:36.493Z,47.65
2022-10-24T11:48:43.728Z,47.47
2022-10-24T11:53:50.872Z,47.55
2022-10-24T11:58:58.110Z,47.33
2022-10-24T12:04:05.352Z,47.52
2022-10-24T12:09:12.569Z,47.53
2022-10-24T12:14:19.912Z,47.46
2022-10-24T12:19:27.118Z,47.50
2022-10-24T12:24:34.358Z,47.45
2022-10-24T12:29:41.672Z,47.52
2022-10-24T12:34:50.043Z,47.30
2022-10-24T12:39:58.537Z,47.25
2022-10-24T12:45:03.494Z,47.22
2022-10-24T12:50:10.748Z,47.18
2022-10-24T12:55:17.979Z,46.91
2022-10-24T13:00:25.237Z,47.03
2022-10-24T13:05:32.500Z,46.92
2022-10-24T13:10:39.790Z,47.10
2022-10-24T13:15:47.421Z,46.84
2022-10-24T13:20:54.644Z,46.86
2022-10-24T13:26:01.798Z,46.75
2022-10-24T13:31:09.108Z,46.72
2022-10-24T13:36:16.281Z,46.72
2022-10-24T13:41:23.551Z,46.69
2022-10-24T13:46:30.844Z,46.65
2022-10-24T13:51:37.993Z,46.55
2022-10-24T13:56:45.255Z,46.49
2022-10-24T14:01:52.454Z,46.37
2022-10-24T14:06:59.604Z,46.35
2022-10-24T14:12:06.808Z,46.41
2022-10-24T14:17:14.028Z,46.29
2022-10-24T14:22:21.215Z,46.46
2022-10-24T14:27:28.445Z,46.49
2022-10-24T14:32:35.652Z,46.45
2022-10-24T14:37:43.102Z,46.39
2022-10-24T14:42:50.083Z,46.80
2022-10-24T14:47:57.285Z,46.76
2022-10-24T14:53:04.488Z,46.47
2022-10-24T14:58:11.693Z,46.40
2022-10-24T15:03:19.003Z,46.35
2022-10-24T15:08:26.109Z,46.27
2022-10-24T15:13:33.269Z,46.28
2022-10-24T15:18:40.499Z,46.05
2022-10-24T15:23:47.691Z,46.01
2022-10-24T15:28:54.911Z,46.16
2022-10-24T15:34:02.131Z,46.15
2022-10-24T15:39:09.296Z,46.12
2022-10-24T15:44:16.503Z,45.96
2022-10-24T15:49:23.733Z,46.02
2022-10-24T15:54:30.934Z,45.97
2022-10-24T15:59:38.190Z,45.54
2022-10-24T16:04:45.437Z,46.45
2022-10-24T16:09:52.926Z,45.52
2022-10-24T16:15:00.304Z,45.80
2022-10-24T16:20:07.516Z,45.68
2022-10-24T16:25:14.656Z,45.80
2022-10-24T16:30:21.881Z,45.52
2022-10-24T16:35:29.395Z,46.04
2022-10-24T16:40:36.735Z,45.66
2022-10-24T16:45:44.183Z,45.58
2022-10-24T16:50:51.550Z,45.36
2022-10-24T16:56:00.133Z,45.64
2022-10-24T17:01:08.012Z,44.85
2022-10-24T17:06:15.247Z,45.02
2022-10-24T17:11:52.543Z,45.50
2022-10-24T17:16:30.387Z,45.36
2022-10-24T17:21:38.032Z,45.24
2022-10-24T17:26:45.611Z,45.18
2022-10-24T17:31:53.029Z,45.03
2022-10-24T17:37:00.551Z,44.72
2022-10-24T17:42:08.093Z,44.43
2022-10-24T17:47:15.859Z,44.08
2022-10-24T17:52:23.502Z,43.94
2022-10-24T17:57:31.096Z,43.63
2022-10-24T18:02:38.802Z,43.36
2022-10-24T18:07:46.822Z,43.01
2022-10-24T18:12:54.093Z,42.80
2022-10-24T18:18:01.645Z,42.67
2022-10-24T18:23:09.286Z,42.50
2022-10-24T18:28:16.596Z,42.23
2022-10-24T18:33:24.123Z,42.16
2022-10-24T18:38:32.842Z,42.00
2022-10-24T18:43:40.434Z,41.94
2022-10-24T18:48:48.587Z,41.88
2022-10-24T18:53:56.100Z,41.75
2022-10-24T18:59:03.701Z,41.57
2022-10-24T19:04:11.224Z,41.54
2022-10-24T19:09:18.837Z,41.32
2022-10-24T19:14:26.436Z,41.43
2022-10-24T19:19:34.071Z,41.29
2022-10-24T19:24:41.682Z,41.28
2022-10-24T19:29:49.185Z,41.25
2022-10-24T19:34:56.884Z,41.26
2022-10-24T19:40:04.527Z,41.32
2022-10-24T19:45:12.020Z,41.28
2022-10-24T19:50:19.638Z,41.20
2022-10-24T19:55:27.277Z,41.19
2022-10-24T20:00:34.547Z,41.22
2022-10-24T20:05:42.062Z,41.26
2022-10-24T20:10:49.823Z,41.18
2022-10-24T20:15:57.392Z,41.13
2022-10-24T20:21:04.842Z,40.98
2022-10-24T20:26:12.949Z,41.27
2022-10-24T20:31:20.093Z,41.52
2022-10-24T20:36:27.356Z,41.44
2022-10-24T20:41:34.584Z,41.67
2022-10-24T20:46:41.749Z,41.66
2022-10-24T20:51:49.090Z,41.58
2022-10-24T20:56:56.445Z,41.56
2022-10-24T21:02:03.831Z,41.63
2022-10-24T21:07:11.084Z,41.62
2022-10-24T21:12:18.611Z,41.53
2022-10-24T21:22:33.001Z,41.42
2022-10-24T21:27:40.243Z,41.41
2022-10-24T21:32:47.385Z,41.33
2022-10-24T21:37:54.710Z,41.49
2022-10-24T21:43:01.974Z,41.04
2022-10-24T21:48:09.123Z,41.03
2022-10-24T21:53:16.351Z,40.90
2022-10-24T21:58:23.561Z,40.90
2022-10-24T22:03:30.704Z,40.95
2022-10-24T22:08:37.847Z,40.91
2022-10-24T22:13:45.108Z,40.85
2022-10-24T22:18:52.271Z,40.58
2022-10-24T22:23:59.493Z,40.53
2022-10-24T22:29:06.616Z,40.57
2022-10-24T22:34:13.818Z,40.62
2022-10-24T22:39:20.992Z,40.46
2022-10-24T22:44:28.212Z,39.89
2022-10-24T22:49:35.399Z,39.80
2022-10-24T22:54:44.381Z,39.71
2022-10-24T22:59:51.603Z,39.62
2022-10-24T23:04:58.736Z,40.00
2022-10-24T23:10:05.890Z,39.94
2022-10-24T23:15:13.113Z,39.99
2022-10-24T23:20:20.314Z,40.24
2022-10-24T23:25:27.461Z,40.24
2022-10-24T23:30:34.694Z,40.43
2022-10-24T23:35:41.891Z,40.57
2022-10-24T23:40:49.050Z,40.76
2022-10-24T23:45:56.257Z,40.85
2022-10-24T23:51:03.484Z,40.87
2022-10-24T23:56:10.886Z,41.09
